Time;durP1;ratioP1;P1;durP2;ratioP2;P2;SDS_P1;SDS_P2;PMS_P1;PMS_P2;Temp;Humidity;BMP_temperature;BMP_pressure;BME280_temperature;BME280_humidity;BME280_pressure;Samples;Min_cycle;Max_cycle;Signal;HPM_P1;HPM_P2
2023/01/25 00:02:45;;;;;;;17.37;11.53;;;-0.70;1.00;;;;;;10479945;28;20213;-76
2023/01/25 00:08:06;;;;;;;15.20;10.20;;;-0.80;99.90;;;;;;10478020;28;20229;-78
2023/01/25 00:13:27;;;;;;;16.77;10.80;;;-0.80;99.90;;;;;;10464119;28;20221;-76
2023/01/25 00:18:49;;;;;;;17.87;12.67;;;-0.90;1.00;;;;;;10481374;28;20263;-77
2023/01/25 00:24:10;;;;;;;19.03;11.53;;;-0.70;99.90;;;;;;10488152;28;20246;-76
2023/01/25 00:29:32;;;;;;;15.73;10.97;;;-0.70;99.90;;;;;;10478133;28;20502;-77
2023/01/25 00:34:53;;;;;;;18.87;11.30;;;-0.70;99.90;;;;;;10476388;28;20230;-76
2023/01/25 00:40:14;;;;;;;17.10;11.07;;;-0.80;99.90;;;;;;10477961;28;20242;-79
2023/01/25 00:45:35;;;;;;;17.57;11.77;;;-0.80;99.90;;;;;;10478331;28;20496;-77
2023/01/25 00:51:01;;;;;;;16.47;11.97;;;-0.90;99.90;;;;;;10450946;28;20272;-79
2023/01/25 00:56:22;;;;;;;18.63;12.17;;;-1.00;1.00;;;;;;10477610;28;20565;-78
2023/01/25 01:01:43;;;;;;;17.80;11.60;;;-0.90;1.00;;;;;;10476969;28;20189;-78
2023/01/25 01:07:04;;;;;;;17.60;10.80;;;-0.90;1.00;;;;;;10476181;28;20247;-78
2023/01/25 01:12:25;;;;;;;16.60;11.50;;;-0.90;99.90;;;;;;10476930;28;20392;-78
2023/01/25 01:17:46;;;;;;;17.00;11.83;;;-1.00;1.00;;;;;;10435581;28;20204;-78
2023/01/25 01:23:09;;;;;;;18.10;12.43;;;-1.00;1.00;;;;;;10454049;28;20208;-78
2023/01/25 01:28:31;;;;;;;14.03;10.77;;;-1.00;1.00;;;;;;10476972;28;20205;-78
2023/01/25 01:33:55;;;;;;;15.53;11.40;;;-1.00;99.90;;;;;;10481375;28;20228;-78
2023/01/25 01:39:16;;;;;;;18.00;11.83;;;-1.00;1.00;;;;;;10482963;28;20564;-78
2023/01/25 01:44:49;;;;;;;16.40;11.33;;;-1.00;99.90;;;;;;10483804;28;20208;-78
2023/01/25 01:50:19;;;;;;;16.83;11.47;;;-1.10;1.00;;;;;;10470452;28;20196;-78
2023/01/25 01:55:42;;;;;;;19.27;11.83;;;-1.10;1.00;;;;;;10483737;28;20625;-77
2023/01/25 02:01:04;;;;;;;19.17;12.17;;;-1.10;1.00;;;;;;10483428;28;20200;-77
2023/01/25 02:06:39;;;;;;;17.33;12.30;;;-1.10;1.00;;;;;;10483545;28;20239;-79
2023/01/25 02:12:01;;;;;;;16.93;11.53;;;-1.10;1.00;;;;;;10482088;28;20221;-79
2023/01/25 02:17:27;;;;;;;21.03;12.87;;;-1.10;1.00;;;;;;10482114;28;20197;-79
2023/01/25 02:23:17;;;;;;;21.43;12.97;;;-1.10;1.00;;;;;;10483658;28;20241;-79
2023/01/25 02:29:02;;;;;;;19.17;12.87;;;-1.20;1.00;;;;;;10479658;28;21569;-78
2023/01/25 02:34:22;;;;;;;19.43;13.00;;;-1.20;1.00;;;;;;10441145;28;20220;-78
2023/01/25 02:39:45;;;;;;;19.67;12.40;;;-1.20;1.00;;;;;;10440854;28;20268;-79
2023/01/25 02:45:10;;;;;;;17.40;11.87;;;-1.20;1.00;;;;;;10455555;28;20242;-79
2023/01/25 02:50:31;;;;;;;19.80;13.17;;;-1.20;1.00;;;;;;10465292;28;20206;-78
2023/01/25 02:55:52;;;;;;;17.77;11.97;;;-1.20;1.00;;;;;;10481322;28;20452;-79
2023/01/25 03:01:14;;;;;;;15.07;10.07;;;-1.20;1.00;;;;;;10457313;28;20197;-77
2023/01/25 03:06:36;;;;;;;14.40;9.53;;;-1.10;1.00;;;;;;10453914;28;20193;-74
2023/01/25 03:11:57;;;;;;;15.50;10.00;;;-1.10;1.00;;;;;;10442273;28;20220;-77
2023/01/25 03:17:18;;;;;;;13.97;9.47;;;-1.20;1.00;;;;;;10478422;28;20219;-76
2023/01/25 03:22:40;;;;;;;17.43;9.70;;;-1.20;1.00;;;;;;10480472;28;20186;-75
2023/01/25 03:28:02;;;;;;;13.53;8.77;;;-1.20;1.00;;;;;;10480263;28;20201;-77
2023/01/25 03:33:23;;;;;;;12.87;9.47;;;-1.20;1.00;;;;;;10478964;28;20296;-76
2023/01/25 03:38:46;;;;;;;14.43;9.60;;;-1.10;1.00;;;;;;10465675;28;20213;-78
2023/01/25 03:44:10;;;;;;;15.83;9.77;;;-1.10;1.00;;;;;;10465213;28;20220;-77
2023/01/25 03:49:32;;;;;;;14.07;9.00;;;-1.10;1.00;;;;;;10467285;28;20228;-79
2023/01/25 03:54:54;;;;;;;17.60;9.53;;;-1.10;1.00;;;;;;10464043;28;20259;-75
2023/01/25 04:00:17;;;;;;;13.60;9.13;;;-1.00;1.00;;;;;;10470851;28;20193;-74
2023/01/25 04:05:47;;;;;;;16.03;9.70;;;-1.00;1.00;;;;;;10437565;28;20250;-75
2023/01/25 04:11:10;;;;;;;16.60;10.03;;;-1.00;1.00;;;;;;10436992;28;20432;-75
2023/01/25 04:16:35;;;;;;;14.87;9.40;;;-1.00;1.00;;;;;;10468633;28;20300;-77
2023/01/25 04:22:15;;;;;;;16.30;10.20;;;-1.00;1.00;;;;;;10467066;28;20420;-76
2023/01/25 04:27:37;;;;;;;23.10;11.27;;;-1.00;1.00;;;;;;10449706;28;20518;-79
2023/01/25 04:33:05;;;;;;;17.90;11.93;;;-1.00;1.00;;;;;;10479658;28;20260;-78
2023/01/25 04:38:27;;;;;;;17.20;11.17;;;-1.00;1.00;;;;;;10488108;28;20562;-76
2023/01/25 04:43:48;;;;;;;21.80;12.70;;;-1.00;1.00;;;;;;10462957;28;20388;-77
2023/01/25 04:49:10;;;;;;;20.50;12.80;;;-1.00;1.00;;;;;;10463338;28;20193;-76
2023/01/25 04:54:31;;;;;;;25.20;13.17;;;-1.00;1.00;;;;;;10438336;28;20236;-78
2023/01/25 04:59:52;;;;;;;24.37;13.37;;;-1.00;1.00;;;;;;10460261;28;20477;-78
2023/01/25 05:05:16;;;;;;;21.17;12.43;;;-1.00;1.00;;;;;;10457744;28;20208;-78
2023/01/25 05:10:39;;;;;;;24.30;14.67;;;-0.90;1.00;;;;;;10443473;28;20204;-78
2023/01/25 05:16:25;;;;;;;26.87;14.17;;;-1.00;1.00;;;;;;10476251;28;20225;-78
2023/01/25 05:21:58;;;;;;;29.33;15.17;;;-1.00;1.00;;;;;;10433206;28;20214;-78
2023/01/25 05:27:24;;;;;;;27.70;15.77;;;-1.00;1.00;;;;;;10457226;28;20409;-79
2023/01/25 05:32:47;;;;;;;34.53;15.87;;;-1.00;1.00;;;;;;10456462;28;20229;-78
2023/01/25 05:38:10;;;;;;;30.60;16.33;;;-0.90;1.00;;;;;;10525612;28;20549;-78
2023/01/25 05:43:32;;;;;;;32.40;17.43;;;-1.00;1.00;;;;;;10526755;28;20192;-77
2023/01/25 05:48:56;;;;;;;33.80;17.30;;;-1.00;1.00;;;;;;10516192;28;20273;-78
2023/01/25 05:54:19;;;;;;;30.87;15.83;;;-1.00;1.00;;;;;;10455558;28;20268;-79
2023/01/25 05:59:50;;;;;;;35.10;17.47;;;-0.90;1.00;;;;;;10483406;28;20194;-77
2023/01/25 06:05:12;;;;;;;32.03;16.77;;;-0.90;1.00;;;;;;10483971;28;20212;-78
2023/01/25 06:10:34;;;;;;;31.70;17.27;;;-0.90;1.00;;;;;;10524674;28;20249;-78
2023/01/25 06:15:57;;;;;;;34.07;17.17;;;-0.90;1.00;;;;;;10494330;28;20263;-78
2023/01/25 06:21:38;;;;;;;35.03;17.40;;;-0.80;1.00;;;;;;10550421;28;20220;-79
2023/01/25 06:26:59;;;;;;;40.97;19.67;;;-0.80;1.00;;;;;;10563350;28;20395;-78
2023/01/25 06:32:21;;;;;;;35.63;18.97;;;-0.90;1.00;;;;;;10562991;28;20408;-78
2023/01/25 06:37:41;;;;;;;39.47;19.17;;;-0.90;1.00;;;;;;10560457;28;20270;-78
2023/01/25 06:43:07;;;;;;;40.70;21.60;;;-0.90;1.00;;;;;;10562694;28;20208;-79
2023/01/25 06:48:29;;;;;;;42.77;21.97;;;-0.90;1.00;;;;;;10561595;28;20202;-78
2023/01/25 06:53:50;;;;;;;34.50;19.50;;;-0.90;1.00;;;;;;10561250;28;20214;-79
2023/01/25 06:59:12;;;;;;;50.73;22.37;;;-0.70;1.00;;;;;;10466765;28;20462;-79
2023/01/25 07:04:33;;;;;;;40.17;21.53;;;-0.80;1.00;;;;;;10481617;28;20192;-78
2023/01/25 07:09:54;;;;;;;45.13;22.60;;;-0.90;1.00;;;;;;10480585;28;20483;-79
2023/01/25 07:15:15;;;;;;;46.23;22.80;;;-0.90;1.00;;;;;;10481356;28;20228;-79
2023/01/25 07:20:36;;;;;;;41.83;21.43;;;-0.90;1.00;;;;;;10479938;28;20197;-79
2023/01/25 07:25:57;;;;;;;44.10;22.10;;;-0.90;1.00;;;;;;10480099;28;20254;-78
2023/01/25 07:31:19;;;;;;;41.60;20.50;;;-0.90;1.00;;;;;;10479959;28;20375;-79
2023/01/25 07:36:42;;;;;;;38.27;20.80;;;-0.90;1.00;;;;;;10455138;28;20228;-78
2023/01/25 07:42:04;;;;;;;40.57;21.03;;;-0.80;1.00;;;;;;10443967;28;20198;-78
2023/01/25 07:47:26;;;;;;;46.23;22.03;;;-0.80;1.00;;;;;;10478616;28;20283;-78
2023/01/25 07:52:47;;;;;;;42.27;20.77;;;-0.80;1.00;;;;;;10478902;28;20233;-78
2023/01/25 07:58:10;;;;;;;46.17;22.77;;;-0.90;1.00;;;;;;10479542;28;20274;-78
2023/01/25 08:03:31;;;;;;;52.93;24.10;;;-0.90;1.00;;;;;;10474830;28;20453;-78
2023/01/25 08:08:54;;;;;;;46.90;23.17;;;-0.90;1.00;;;;;;10478208;28;20207;-77
2023/01/25 08:14:15;;;;;;;44.13;22.87;;;-0.90;1.00;;;;;;10477938;28;20228;-78
2023/01/25 08:19:36;;;;;;;56.07;26.80;;;-0.90;1.00;;;;;;10476744;28;20201;-78
2023/01/25 08:24:59;;;;;;;56.17;25.33;;;-0.90;1.00;;;;;;10438312;28;20559;-80
2023/01/25 08:30:20;;;;;;;55.40;29.00;;;-0.80;1.00;;;;;;10473301;28;20201;-78
2023/01/25 08:35:42;;;;;;;53.27;27.73;;;-0.80;1.00;;;;;;10459730;28;20254;-80
2023/01/25 08:41:14;;;;;;;55.70;28.47;;;-0.70;1.00;;;;;;10464846;28;20223;-76
2023/01/25 08:46:36;;;;;;;55.23;25.37;;;-0.60;1.00;;;;;;10456665;28;20554;-81
2023/01/25 08:51:57;;;;;;;47.97;24.57;;;-0.50;1.00;;;;;;10469344;28;20205;-77
2023/01/25 08:57:19;;;;;;;54.53;25.53;;;-0.50;1.00;;;;;;10471147;28;20238;-80
2023/01/25 09:02:40;;;;;;;50.47;26.37;;;-0.50;1.00;;;;;;10469869;28;20235;-76
2023/01/25 09:08:01;;;;;;;54.57;26.40;;;-0.60;1.00;;;;;;10488801;28;20199;-77
2023/01/25 09:13:23;;;;;;;51.43;25.57;;;-0.50;1.00;;;;;;10505264;28;20316;-77
2023/01/25 09:18:44;;;;;;;56.93;27.13;;;-0.40;1.00;;;;;;10471957;28;20249;-77
2023/01/25 09:24:06;;;;;;;49.70;25.17;;;-0.50;1.00;;;;;;10455053;28;20214;-77
2023/01/25 09:29:28;;;;;;;51.33;25.93;;;-0.30;1.00;;;;;;10467908;28;20540;-77
2023/01/25 09:34:49;;;;;;;56.80;29.70;;;-0.20;1.00;;;;;;10471355;28;20214;-77
2023/01/25 09:40:24;;;;;;;75.13;33.87;;;-0.20;1.00;;;;;;10498589;28;20439;-77
2023/01/25 09:45:46;;;;;;;57.20;29.33;;;-0.10;99.90;;;;;;10512638;28;20208;-76
2023/01/25 09:51:25;;;;;;;67.43;31.67;;;0.00;99.90;;;;;;10510038;28;20204;-77
2023/01/25 09:56:49;;;;;;;59.53;29.00;;;0.00;99.90;;;;;;10478386;28;20241;-77
2023/01/25 10:02:29;;;;;;;50.07;26.40;;;0.10;99.90;;;;;;10437172;28;20201;-77
2023/01/25 10:08:13;;;;;;;55.47;27.60;;;0.10;99.90;;;;;;10439410;28;20211;-76
2023/01/25 10:13:34;;;;;;;54.97;28.13;;;0.20;34.20;;;;;;10446359;28;20477;-76
2023/01/25 10:19:01;;;;;;;50.60;25.53;;;0.20;1.00;;;;;;10478267;28;20194;-81
2023/01/25 10:24:50;;;;;;;53.20;26.33;;;0.10;1.00;;;;;;10460222;28;20250;-77
2023/01/25 10:30:27;;;;;;;52.10;26.50;;;0.10;99.90;;;;;;10475683;28;20206;-76
2023/01/25 10:35:49;;;;;;;51.93;26.20;;;0.00;99.90;;;;;;10478242;28;20234;-77
2023/01/25 10:41:46;;;;;;;59.37;27.67;;;0.10;99.90;;;;;;10475269;28;20740;-76
2023/01/25 10:47:25;;;;;;;51.27;25.83;;;0.20;99.90;;;;;;10513981;28;20202;-77
2023/01/25 10:52:57;;;;;;;58.60;29.23;;;0.20;99.90;;;;;;10513571;28;20322;-81
2023/01/25 10:58:36;;;;;;;62.07;27.67;;;0.20;99.90;;;;;;10513704;28;20246;-78
2023/01/25 11:03:59;;;;;;;51.03;27.67;;;0.30;99.90;;;;;;10513900;28;20203;-79
2023/01/25 11:09:20;;;;;;;70.37;33.07;;;0.40;99.90;;;;;;10505802;28;20210;-78
2023/01/25 11:14:41;;;;;;;59.10;30.47;;;0.50;1.00;;;;;;10489301;28;20249;-77
2023/01/25 11:20:06;;;;;;;48.93;26.70;;;0.40;1.00;;;;;;10490609;28;20400;-79
2023/01/25 11:25:32;;;;;;;52.13;26.07;;;0.40;1.00;;;;;;10436616;28;20215;-78
2023/01/25 11:30:53;;;;;;;45.73;26.73;;;0.50;1.00;;;;;;10433801;28;20203;-77
2023/01/25 11:36:24;;;;;;;49.30;26.33;;;0.60;99.90;;;;;;10433030;28;20550;-77
2023/01/25 11:41:53;;;;;;;43.73;23.87;;;0.50;99.90;;;;;;10480649;28;20208;-78
2023/01/25 11:47:55;;;;;;;41.40;22.97;;;0.60;99.90;;;;;;10473236;28;20203;-77
2023/01/25 11:53:45;;;;;;;40.07;23.23;;;0.70;1.00;;;;;;10474288;28;20249;-76
2023/01/25 11:59:21;;;;;;;45.73;22.17;;;0.70;99.90;;;;;;10466479;28;20223;-77
2023/01/25 12:05:00;;;;;;;43.50;21.33;;;0.60;1.00;;;;;;10453463;28;20282;-80
2023/01/25 12:10:57;;;;;;;45.17;25.07;;;0.50;1.00;;;;;;10455556;28;20271;-79
2023/01/25 12:16:57;;;;;;;40.40;23.37;;;0.60;1.00;;;;;;10453161;28;20903;-76
2023/01/25 12:22:39;;;;;;;49.63;25.87;;;0.50;1.00;;;;;;10437442;28;20224;-77
2023/01/25 12:28:09;;;;;;;40.27;21.33;;;0.60;18.10;;;;;;10425875;28;20234;-81
2023/01/25 12:33:52;;;;;;;45.17;23.53;;;0.70;1.00;;;;;;10424850;28;20234;-76
2023/01/25 12:39:25;;;;;;;57.20;26.63;;;0.70;99.90;;;;;;10447339;28;20198;-77
2023/01/25 12:45:01;;;;;;;48.73;25.57;;;0.80;1.00;;;;;;10453086;28;20217;-77
2023/01/25 12:50:40;;;;;;;59.87;31.03;;;0.80;99.90;;;;;;10473176;28;20210;-77
2023/01/25 12:56:03;;;;;;;31.77;18.10;;;0.70;99.90;;;;;;10469780;28;20257;-77
2023/01/25 13:01:48;;;;;;;37.20;20.37;;;0.90;1.00;;;;;;10457160;28;20194;-76
2023/01/25 13:07:12;;;;;;;30.23;18.07;;;1.20;1.00;;;;;;10470982;28;20509;-78
2023/01/25 13:12:54;;;;;;;34.60;17.90;;;1.20;1.00;;;;;;10457200;28;20289;-76
2023/01/25 13:18:26;;;;;;;31.97;18.63;;;1.20;1.00;;;;;;10472260;28;20203;-80
2023/01/25 13:24:09;;;;;;;32.37;16.73;;;1.30;1.00;;;;;;10471926;28;20272;-78
2023/01/25 13:29:39;;;;;;;23.53;14.87;;;1.20;99.90;;;;;;10459263;28;20216;-78
2023/01/25 13:35:01;;;;;;;25.07;13.20;;;1.10;99.90;;;;;;10477052;28;20247;-77
2023/01/25 13:40:32;;;;;;;24.23;14.83;;;1.10;1.00;;;;;;10479572;28;20189;-78
2023/01/25 13:45:53;;;;;;;30.87;17.27;;;0.90;1.00;;;;;;10476875;28;20223;-78
2023/01/25 13:51:17;;;;;;;33.23;17.97;;;0.80;1.00;;;;;;10478549;28;20526;-80
2023/01/25 13:56:38;;;;;;;32.27;18.90;;;0.70;99.90;;;;;;10478791;28;20575;-75
2023/01/25 14:02:01;;;;;;;34.87;20.40;;;0.60;95.80;;;;;;10455167;28;20578;-76
2023/01/25 14:07:29;;;;;;;41.33;21.40;;;0.50;1.00;;;;;;10501924;28;20259;-78
2023/01/25 14:12:52;;;;;;;74.07;30.40;;;0.50;1.00;;;;;;10515854;28;20210;-79
2023/01/25 14:18:18;;;;;;;73.77;30.40;;;0.50;1.00;;;;;;10478245;28;20214;-76
2023/01/25 14:23:39;;;;;;;80.73;36.43;;;0.50;1.00;;;;;;10507166;28;20256;-77
2023/01/25 14:29:00;;;;;;;52.40;28.40;;;0.40;1.00;;;;;;10492288;28;20198;-78
2023/01/25 14:34:25;;;;;;;43.97;24.27;;;0.30;1.00;;;;;;10477838;28;20237;-78
2023/01/25 14:39:48;;;;;;;40.73;24.70;;;0.30;1.00;;;;;;10473294;28;20210;-78
2023/01/25 14:45:12;;;;;;;37.77;25.07;;;0.10;99.90;;;;;;10474203;28;20201;-81
2023/01/25 14:50:34;;;;;;;34.57;21.13;;;0.10;99.90;;;;;;10462403;28;20257;-77
2023/01/25 14:55:55;;;;;;;39.37;23.43;;;0.00;84.30;;;;;;10475353;28;20250;-79
2023/01/25 15:01:44;;;;;;;41.27;22.73;;;-0.10;99.90;;;;;;10472855;28;20216;-78
2023/01/25 15:07:05;;;;;;;68.37;35.57;;;-0.20;1.00;;;;;;10457680;28;20191;-79
2023/01/25 15:12:37;;;;;;;76.73;39.17;;;-0.30;1.00;;;;;;10475340;28;20247;-77
2023/01/25 15:17:59;;;;;;;66.60;33.93;;;-0.20;1.00;;;;;;10442364;28;20384;-78
2023/01/25 15:23:22;;;;;;;66.33;32.53;;;-0.20;1.00;;;;;;10475986;28;20190;-80
2023/01/25 15:28:43;;;;;;;76.53;33.87;;;-0.20;1.00;;;;;;10458768;28;20258;-77
2023/01/25 15:34:05;;;;;;;49.10;26.57;;;-0.20;1.00;;;;;;10470796;28;20283;-78
2023/01/25 15:39:26;;;;;;;51.80;28.50;;;-0.10;1.00;;;;;;10476018;28;20478;-78
2023/01/25 15:44:47;;;;;;;66.00;36.10;;;-0.20;1.00;;;;;;10486818;28;20256;-80
2023/01/25 15:50:17;;;;;;;63.57;33.90;;;-0.20;1.00;;;;;;10458696;28;20189;-78
2023/01/25 15:55:38;;;;;;;43.17;25.67;;;-0.20;1.00;;;;;;10474281;28;20234;-79
2023/01/25 16:01:00;;;;;;;40.70;23.27;;;-0.20;1.00;;;;;;10473592;28;20225;-77
2023/01/25 16:06:27;;;;;;;64.23;37.33;;;-0.10;1.00;;;;;;10473900;28;20235;-77
2023/01/25 16:11:54;;;;;;;41.10;23.77;;;-0.30;1.00;;;;;;10475664;28;20185;-78
2023/01/25 16:17:18;;;;;;;41.23;24.17;;;-0.20;1.00;;;;;;10473411;28;20250;-84
2023/01/25 16:22:39;;;;;;;51.63;27.17;;;-0.20;1.00;;;;;;10449635;28;20463;-83
2023/01/25 16:28:01;;;;;;;34.00;21.33;;;-0.30;1.00;;;;;;10462127;28;20208;-79
2023/01/25 16:33:23;;;;;;;31.03;19.40;;;-0.30;1.00;;;;;;10450601;28;20508;-78
2023/01/25 16:38:45;;;;;;;29.87;19.60;;;-0.30;1.00;;;;;;10436458;28;20191;-77
2023/01/25 16:44:06;;;;;;;45.73;26.23;;;-0.20;1.00;;;;;;10435589;28;20202;-77
2023/01/25 16:49:29;;;;;;;34.47;20.30;;;-0.20;1.00;;;;;;10474913;28;20280;-78
2023/01/25 16:54:50;;;;;;;38.37;22.93;;;-0.20;1.00;;;;;;10476191;28;20234;-78
2023/01/25 17:00:12;;;;;;;38.60;24.00;;;-0.20;1.00;;;;;;10475910;28;20571;-77
2023/01/25 17:05:37;;;;;;;42.50;22.40;;;-0.20;1.00;;;;;;10448788;28;20206;-77
2023/01/25 17:11:05;;;;;;;35.90;19.73;;;-0.30;1.00;;;;;;10449592;28;20383;-78
2023/01/25 17:16:28;;;;;;;34.13;21.30;;;-0.20;1.00;;;;;;10491327;28;20572;-78
2023/01/25 17:21:48;;;;;;;43.93;25.53;;;-0.30;1.00;;;;;;10475251;28;20393;-77
2023/01/25 17:27:10;;;;;;;36.50;21.60;;;-0.30;1.00;;;;;;10489053;28;20281;-78
2023/01/25 17:32:31;;;;;;;36.00;21.37;;;-0.30;1.00;;;;;;10488825;28;20217;-78
2023/01/25 17:37:53;;;;;;;45.77;24.40;;;-0.20;1.00;;;;;;10490935;28;20225;-78
2023/01/25 17:43:14;;;;;;;76.93;33.13;;;-0.20;1.00;;;;;;10475586;28;20497;-78
2023/01/25 17:48:35;;;;;;;41.83;24.97;;;-0.20;1.00;;;;;;10485844;28;20198;-77
2023/01/25 17:53:57;;;;;;;53.27;29.50;;;-0.20;1.00;;;;;;10453505;28;20225;-77
2023/01/25 17:59:18;;;;;;;27.90;18.37;;;-0.20;1.00;;;;;;10473226;28;20388;-78
2023/01/25 18:04:39;;;;;;;36.40;19.70;;;-0.30;1.00;;;;;;10453807;28;20210;-79
2023/01/25 18:10:00;;;;;;;37.67;20.90;;;-0.30;1.00;;;;;;10485036;28;20217;-78
2023/01/25 18:15:22;;;;;;;35.03;19.30;;;-0.30;1.00;;;;;;10485306;28;20224;-78
2023/01/25 18:20:43;;;;;;;53.20;23.40;;;-0.20;1.00;;;;;;10494264;28;20206;-78
2023/01/25 18:26:07;;;;;;;51.03;26.43;;;-0.30;1.00;;;;;;10523044;28;20198;-78
2023/01/25 18:31:29;;;;;;;35.67;19.70;;;-0.30;1.00;;;;;;10441497;28;20213;-79
2023/01/25 18:36:51;;;;;;;34.30;20.73;;;-0.30;1.00;;;;;;10469931;28;20253;-78
2023/01/25 18:42:12;;;;;;;37.07;20.67;;;-0.30;1.00;;;;;;10482217;28;20186;-78
2023/01/25 18:47:33;;;;;;;34.73;20.17;;;-0.40;1.00;;;;;;10477407;28;20583;-79
2023/01/25 18:52:54;;;;;;;30.13;18.30;;;-0.30;1.00;;;;;;10482626;28;20233;-79
2023/01/25 18:58:15;;;;;;;21.93;14.30;;;-0.30;1.00;;;;;;10481146;28;20486;-79
2023/01/25 19:03:37;;;;;;;21.20;13.87;;;-0.30;1.00;;;;;;10478891;28;20202;-79
2023/01/25 19:08:59;;;;;;;23.40;14.33;;;-0.20;1.00;;;;;;10480453;28;20546;-79
2023/01/25 19:14:20;;;;;;;31.03;18.67;;;-0.20;1.00;;;;;;10479342;28;20236;-79
2023/01/25 19:19:42;;;;;;;55.10;26.03;;;-0.30;1.00;;;;;;10489019;28;20203;-78
2023/01/25 19:25:04;;;;;;;38.97;22.17;;;-0.30;1.00;;;;;;10478418;28;20359;-78
2023/01/25 19:30:25;;;;;;;39.50;21.40;;;-0.40;1.00;;;;;;10454741;28;20498;-78
2023/01/25 19:35:46;;;;;;;42.90;19.87;;;-0.50;1.00;;;;;;10478562;28;20221;-78
2023/01/25 19:41:11;;;;;;;42.43;19.60;;;-0.50;1.00;;;;;;10474585;28;20225;-79
2023/01/25 19:46:34;;;;;;;24.87;16.10;;;-0.50;1.00;;;;;;10480078;28;20195;-79
2023/01/25 19:51:55;;;;;;;26.27;15.77;;;-0.50;1.00;;;;;;10480360;28;20191;-78
2023/01/25 19:57:16;;;;;;;33.83;16.73;;;-0.50;1.00;;;;;;10477536;28;20245;-79
2023/01/25 20:02:37;;;;;;;30.97;18.23;;;-0.50;1.00;;;;;;10479555;28;20187;-79
2023/01/25 20:07:59;;;;;;;31.17;18.43;;;-0.60;1.00;;;;;;10478308;28;20286;-78
2023/01/25 20:13:20;;;;;;;32.17;18.40;;;-0.60;1.00;;;;;;10506797;28;20195;-79
2023/01/25 20:18:42;;;;;;;32.13;17.70;;;-0.60;1.00;;;;;;10481402;28;20233;-79
2023/01/25 20:24:04;;;;;;;34.33;17.57;;;-0.60;1.00;;;;;;10477132;28;20197;-78
2023/01/25 20:29:27;;;;;;;28.33;16.37;;;-0.70;1.00;;;;;;10500597;28;20218;-78
2023/01/25 20:34:48;;;;;;;37.57;18.87;;;-0.60;1.00;;;;;;10481895;28;20247;-79
2023/01/25 20:40:11;;;;;;;31.83;17.73;;;-0.60;1.00;;;;;;10476447;28;20208;-79
2023/01/25 20:45:33;;;;;;;30.30;17.70;;;-0.60;1.00;;;;;;10475584;28;20188;-78
2023/01/25 20:51:08;;;;;;;23.13;15.07;;;-0.40;1.00;;;;;;10473894;28;20243;-79
2023/01/25 20:56:30;;;;;;;28.47;16.00;;;-0.50;1.00;;;;;;10476709;28;20243;-78
2023/01/25 21:01:51;;;;;;;24.57;14.90;;;-0.50;1.00;;;;;;10477469;28;20190;-79
2023/01/25 21:07:12;;;;;;;39.93;20.20;;;-0.50;1.00;;;;;;10475746;28;20428;-79
2023/01/25 21:12:33;;;;;;;24.57;15.23;;;-0.50;1.00;;;;;;10477878;28;20251;-79
2023/01/25 21:17:54;;;;;;;25.43;15.40;;;-0.50;1.00;;;;;;10476322;28;20232;-79
2023/01/25 21:23:15;;;;;;;37.23;19.73;;;-0.50;1.00;;;;;;10511876;28;20205;-78
2023/01/25 21:28:36;;;;;;;32.23;18.23;;;-0.50;1.00;;;;;;10512779;28;20251;-78
2023/01/25 21:33:57;;;;;;;37.90;20.40;;;-0.40;1.00;;;;;;10518579;28;20447;-80
2023/01/25 21:39:19;;;;;;;34.27;18.57;;;-0.40;1.00;;;;;;10486409;28;20205;-79
2023/01/25 21:55:59;;;;;;;23.03;14.53;;;-0.40;1.00;;;;;;10484332;28;20242;-78
2023/01/25 22:01:21;;;;;;;23.20;13.77;;;-0.40;1.00;;;;;;10484394;28;20354;-79
2023/01/25 22:06:43;;;;;;;21.60;13.67;;;-0.30;1.00;;;;;;10482817;28;20282;-79
2023/01/25 22:12:04;;;;;;;23.67;13.47;;;-0.40;1.00;;;;;;10500924;28;20204;-78
2023/01/25 22:17:28;;;;;;;21.33;13.50;;;-0.40;1.00;;;;;;10493355;28;20259;-79
2023/01/25 22:22:49;;;;;;;19.60;12.37;;;-0.40;1.00;;;;;;10482875;28;20281;-77
2023/01/25 22:28:12;;;;;;;20.00;12.33;;;-0.40;1.00;;;;;;10460104;28;20460;-78
2023/01/25 22:33:33;;;;;;;21.67;11.73;;;-0.40;1.00;;;;;;10483319;28;20198;-79
2023/01/25 22:38:58;;;;;;;17.77;11.87;;;-0.40;1.00;;;;;;10482583;28;20225;-75
2023/01/25 22:44:20;;;;;;;22.53;13.13;;;-0.50;1.00;;;;;;10479341;28;20199;-77
2023/01/25 22:49:41;;;;;;;20.20;12.40;;;-0.50;1.00;;;;;;10482692;28;20244;-77
2023/01/25 22:55:02;;;;;;;18.47;12.10;;;-0.50;1.00;;;;;;10482326;28;20226;-76
2023/01/25 23:00:23;;;;;;;22.57;14.07;;;-0.50;1.00;;;;;;10480224;28;20220;-78
2023/01/25 23:05:43;;;;;;;25.17;13.13;;;-0.50;1.00;;;;;;10481138;28;20542;-78
2023/01/25 23:11:10;;;;;;;22.57;13.30;;;-0.50;1.00;;;;;;10479105;28;20199;-77
2023/01/25 23:16:35;;;;;;;23.60;14.33;;;-0.50;1.00;;;;;;10474638;28;20216;-77
2023/01/25 23:21:56;;;;;;;18.20;12.17;;;-0.40;1.00;;;;;;10439667;28;20212;-78
2023/01/25 23:27:17;;;;;;;22.70;13.43;;;-0.40;1.00;;;;;;10448297;28;20607;-77
2023/01/25 23:32:39;;;;;;;21.43;13.50;;;-0.40;1.00;;;;;;10479698;28;20269;-75
2023/01/25 23:38:00;;;;;;;24.00;13.40;;;-0.40;1.00;;;;;;10480245;28;20218;-77
2023/01/25 23:43:20;;;;;;;24.43;14.47;;;-0.40;1.00;;;;;;10477868;28;20195;-77
2023/01/25 23:48:43;;;;;;;23.93;15.07;;;-0.50;1.00;;;;;;10480261;28;20236;-77
2023/01/25 23:54:04;;;;;;;33.20;16.83;;;-0.50;1.00;;;;;;10478953;28;20200;-78
2023/01/25 23:59:25;;;;;;;33.47;18.57;;;-0.50;1.00;;;;;;10476350;28;20263;-78
